Time;durP1;ratioP1;P1;durP2;ratioP2;P2;SDS_P1;SDS_P2;PMS_P1;PMS_P2;Temp;Humidity;BMP_temperature;BMP_pressure;BME280_temperature;BME280_humidity;BME280_pressure;Samples;Min_cycle;Max_cycle;Signal;HPM_P1;HPM_P2
2023/02/10 00:00:22;;;;;;;;;71.50;54.25;;;;;8.16;54.11;102915.13;6271929;22;46622;-81
2023/02/10 00:06:11;;;;;;;;;68.50;54.25;;;;;8.60;54.07;102984.59;6272169;22;45451;-78
2023/02/10 00:08:37;;;;;;;;;78.00;57.25;;;;;8.58;53.93;102983.81;6271791;22;45683;-82
2023/02/10 00:11:11;;;;;;;;;72.50;55.75;;;;;8.50;53.94;102966.56;6271587;22;46527;-76
2023/02/10 00:13:43;;;;;;;;;68.75;55.25;;;;;8.51;53.92;102966.53;6244337;22;46662;-78
2023/02/10 00:16:11;;;;;;;;;71.50;54.50;;;;;8.58;54.06;102975.97;6271297;22;45589;-79
2023/02/10 00:18:37;;;;;;;;;68.75;53.50;;;;;8.66;53.80;102984.44;6271428;22;45553;-78
2023/02/10 00:21:12;;;;;;;;;70.25;56.00;;;;;8.68;54.16;102990.50;6271394;22;46695;-80
2023/02/10 00:23:37;;;;;;;;;78.00;57.00;;;;;8.68;54.11;102985.28;6271711;22;46080;-80
2023/02/10 00:26:08;;;;;;;;;72.25;56.25;;;;;8.69;54.51;102984.38;6271635;22;45409;-80
2023/02/10 00:28:34;;;;;;;;;71.50;53.00;;;;;8.71;54.82;102984.34;6271764;22;45773;-78
2023/02/10 00:31:08;;;;;;;;;77.00;57.00;;;;;8.72;54.33;102983.44;6272604;22;45524;-79
2023/02/10 00:37:11;;;;;;;;;69.75;53.75;;;;;8.72;54.40;102975.59;6268637;22;45788;-82
2023/02/10 00:39:37;;;;;;;;;60.75;47.50;;;;;8.72;54.20;102973.84;6274920;22;45563;-78
2023/02/10 00:42:05;;;;;;;;;70.25;56.00;;;;;8.64;54.48;102948.78;6274033;22;45400;-81
2023/02/10 00:44:31;;;;;;;;;71.00;50.75;;;;;8.56;54.22;102942.91;6245106;22;47816;-79
2023/02/10 00:46:59;;;;;;;;;68.25;53.00;;;;;8.60;54.35;102950.63;6245106;22;45746;-78
2023/02/10 00:49:25;;;;;;;;;63.25;52.00;;;;;8.77;54.77;102971.97;6272541;22;45441;-78
2023/02/10 00:51:50;;;;;;;;;61.75;49.50;;;;;8.79;54.58;102971.94;6244901;22;47376;-77
2023/02/10 00:54:20;;;;;;;;;69.00;52.25;;;;;8.57;54.14;102937.66;6245341;22;46212;-79
2023/02/10 00:56:49;;;;;;;;;65.00;52.00;;;;;8.77;54.29;102965.88;6220512;22;45628;-78
2023/02/10 00:59:22;;;;;;;;;69.75;55.50;;;;;8.20;54.29;102872.41;6273875;22;45656;-77
2023/02/10 01:01:51;;;;;;;;;70.50;54.75;;;;;8.17;54.32;102855.94;6272584;22;45653;-80
2023/02/10 01:04:22;;;;;;;;;70.75;53.00;;;;;8.32;54.50;102884.31;6270211;22;48134;-76
2023/02/10 01:06:48;;;;;;;;;69.00;53.25;;;;;8.19;54.53;102867.22;6272261;22;45530;-77
2023/02/10 01:09:13;;;;;;;;;71.00;54.25;;;;;8.39;54.23;102906.75;6271917;22;45537;-78
2023/02/10 01:11:44;;;;;;;;;69.50;52.25;;;;;8.39;54.25;102910.25;6242334;22;46485;-75
2023/02/10 01:14:10;;;;;;;;;70.50;54.75;;;;;8.30;54.34;102900.03;6272183;22;46053;-77
2023/02/10 01:16:36;;;;;;;;;61.75;49.00;;;;;8.76;54.51;102959.78;6272225;22;45518;-77
2023/02/10 01:22:23;;;;;;;;;71.75;56.00;;;;;8.87;54.06;102980.44;6272397;22;45547;-77
2023/02/10 01:24:48;;;;;;;;;68.75;52.75;;;;;8.92;54.47;102993.38;6271821;22;46179;-78
2023/02/10 01:27:13;;;;;;;;;67.50;53.25;;;;;8.93;54.57;102982.03;6272519;22;45552;-79
2023/02/10 01:29:39;;;;;;;;;64.75;52.50;;;;;8.93;54.63;102982.88;6272468;22;45706;-80
2023/02/10 01:38:39;;;;;;;;;66.50;50.75;;;;;8.89;54.86;102965.56;6275333;22;45876;-76
2023/02/10 01:41:06;;;;;;;;;67.75;51.25;;;;;8.91;54.70;102974.22;6249203;22;45397;-77
2023/02/10 01:43:31;;;;;;;;;64.25;52.75;;;;;8.98;54.82;102982.75;6274391;22;47638;-82
2023/02/10 01:45:57;;;;;;;;;65.25;50.75;;;;;8.95;54.82;102973.25;6272469;22;46074;-78
2023/02/10 01:48:24;;;;;;;;;60.00;46.00;;;;;8.95;54.94;102968.03;6271431;22;45564;-77
2023/02/10 01:51:01;;;;;;;;;64.25;51.75;;;;;9.02;55.34;102982.63;6272074;22;45602;-76
2023/02/10 01:53:28;;;;;;;;;64.50;47.50;;;;;9.02;55.21;102979.16;6272262;22;46887;-76
2023/02/10 01:55:59;;;;;;;;;59.50;47.00;;;;;8.98;55.12;102975.78;6271754;22;47206;-74
2023/02/10 01:58:27;;;;;;;;;64.75;52.00;;;;;9.03;55.25;102989.59;6272350;22;45779;-80
2023/02/10 02:00:53;;;;;;;;;65.00;51.25;;;;;9.00;54.88;102992.31;6272885;22;45574;-75
2023/02/10 02:03:25;;;;;;;;;68.00;52.75;;;;;8.83;55.12;102960.50;6272775;22;45612;-78
2023/02/10 02:05:59;;;;;;;;;64.50;51.00;;;;;8.80;55.27;102965.78;6273208;22;46121;-77
2023/02/10 02:08:31;;;;;;;;;68.75;54.00;;;;;9.04;55.25;102987.84;6247115;22;45716;-80
2023/02/10 02:11:06;;;;;;;;;70.25;56.00;;;;;8.78;55.38;102942.34;6271501;22;45902;-75
2023/02/10 02:13:49;;;;;;;;;69.75;54.50;;;;;9.04;55.34;102985.22;6271021;22;46496;-77
2023/02/10 02:16:40;;;;;;;;;72.00;58.50;;;;;9.04;55.40;102980.84;6271106;22;45908;-76
2023/02/10 02:19:50;;;;;;;;;72.50;57.00;;;;;9.04;55.41;102988.69;6271326;22;45764;-78
2023/02/10 02:22:37;;;;;;;;;76.25;57.00;;;;;9.04;55.74;102987.84;6244483;22;45491;-78
2023/02/10 02:25:17;;;;;;;;;72.50;58.25;;;;;9.04;55.59;102987.84;6271773;22;47253;-79
2023/02/10 02:27:55;;;;;;;;;73.50;56.25;;;;;9.02;55.66;102982.63;6271737;22;46201;-80
2023/02/10 02:31:02;;;;;;;;;70.75;56.50;;;;;9.01;55.45;102986.19;6273669;22;45929;-80
2023/02/10 02:36:57;;;;;;;;;65.25;49.00;;;;;9.01;55.57;102980.94;6271821;22;45988;-79
2023/02/10 02:39:23;;;;;;;;;72.25;55.50;;;;;8.68;55.84;102933.03;6268814;22;45995;-79
2023/02/10 02:42:11;;;;;;;;;76.25;56.50;;;;;8.74;55.74;102934.63;6271159;22;45819;-80
2023/02/10 02:44:37;;;;;;;;;72.00;55.75;;;;;8.78;55.79;102936.25;6271325;22;45440;-79
2023/02/10 02:47:28;;;;;;;;;71.50;55.50;;;;;9.00;55.74;102979.22;6271936;22;46394;-78
2023/02/10 02:53:33;;;;;;;;;74.00;54.25;;;;;8.96;56.34;102974.13;6147304;23;45609;-79
2023/02/10 02:56:20;;;;;;;;;72.00;54.50;;;;;8.97;56.24;102983.66;6148107;23;45497;-78
2023/02/10 02:58:45;;;;;;;;;67.50;53.00;;;;;8.96;56.33;102989.81;6146862;23;46220;-78
2023/02/10 03:01:21;;;;;;;;;70.67;55.33;;;;;8.89;56.30;102983.88;6147648;23;45664;-79
2023/02/10 03:03:46;;;;;;;;;66.50;54.25;;;;;8.95;56.17;102995.94;6145953;23;45873;-79
2023/02/10 03:06:12;;;;;;;;;62.00;50.50;;;;;8.88;56.52;102990.00;6146048;23;46028;-78
2023/02/10 03:08:40;;;;;;;;;70.00;56.00;;;;;8.86;56.31;102978.72;6147098;23;46761;-79
2023/02/10 03:11:06;;;;;;;;;64.75;49.50;;;;;8.91;56.29;102979.44;6146257;23;46079;-79
2023/02/10 03:13:31;;;;;;;;;63.50;51.25;;;;;8.89;56.32;102986.50;6147123;23;46256;-80
2023/02/10 03:15:59;;;;;;;;;70.25;50.50;;;;;8.92;56.35;102983.78;6148159;23;45562;-75
2023/02/10 03:18:24;;;;;;;;;70.25;54.00;;;;;8.92;56.15;102981.16;6147571;23;47236;-79
2023/02/10 03:24:11;;;;;;;;;62.00;50.25;;;;;8.92;56.65;102990.75;6147771;23;45603;-78
2023/02/10 03:26:37;;;;;;;;;67.25;52.25;;;;;8.89;56.32;102994.34;6168664;22;45443;-82
2023/02/10 03:29:03;;;;;;;;;63.50;51.75;;;;;8.91;56.31;102999.53;6272062;22;47329;-79
2023/02/10 03:31:29;;;;;;;;;71.25;54.25;;;;;8.89;56.29;102996.09;6272499;22;46390;-77
2023/02/10 03:33:54;;;;;;;;;58.50;46.00;;;;;8.87;56.34;102988.28;6271727;22;45597;-77
2023/02/10 03:36:20;;;;;;;;;62.00;50.00;;;;;8.92;56.32;102993.38;6273074;22;45586;-77
2023/02/10 03:39:03;;;;;;;;;63.50;50.50;;;;;8.58;56.16;102928.94;6272106;22;46619;-79
2023/02/10 03:41:29;;;;;;;;;49.50;41.00;;;;;8.72;56.36;102950.31;6244571;22;47632;-78
2023/02/10 03:43:54;;;;;;;;;65.00;51.00;;;;;8.93;56.33;102988.13;6271947;22;45621;-78
2023/02/10 03:46:21;;;;;;;;;65.25;49.00;;;;;8.89;56.44;102983.88;6272163;22;45445;-78
2023/02/10 03:48:46;;;;;;;;;64.50;49.75;;;;;8.93;56.29;102995.97;6273047;22;46357;-78
2023/02/10 03:54:33;;;;;;;;;66.25;45.00;;;;;8.90;56.43;102990.81;6271957;22;45472;-79
2023/02/10 03:56:59;;;;;;;;;61.50;48.00;;;;;8.93;56.25;102993.34;6271752;22;45371;-81
2023/02/10 03:59:25;;;;;;;;;63.25;49.00;;;;;8.93;56.75;102995.97;6271310;22;46850;-79
2023/02/10 04:01:50;;;;;;;;;56.75;46.50;;;;;8.85;56.44;102977.84;6243728;22;48140;-79
2023/02/10 04:04:16;;;;;;;;;64.25;49.50;;;;;8.88;56.25;102990.00;6272391;22;45571;-81
2023/02/10 04:06:41;;;;;;;;;63.50;49.25;;;;;8.77;56.43;102971.13;6272425;22;45650;-78
2023/02/10 04:09:06;;;;;;;;;64.25;50.75;;;;;8.92;56.61;102994.25;6271426;22;47115;-79
2023/02/10 04:11:32;;;;;;;;;64.50;51.50;;;;;8.85;56.33;102980.47;6244032;22;47968;-80
2023/02/10 04:13:57;;;;;;;;;60.25;49.50;;;;;8.92;56.42;102994.25;6243937;22;45568;-78
2023/02/10 04:16:27;;;;;;;;;61.00;50.50;;;;;8.89;56.33;102988.25;6273795;22;45591;-78
2023/02/10 04:18:53;;;;;;;;;72.25;52.25;;;;;8.85;56.36;102990.09;6273222;22;45510;-80
2023/02/10 04:24:40;;;;;;;;;66.00;53.50;;;;;8.88;56.61;102990.00;6272299;22;45686;-78
2023/02/10 04:27:05;;;;;;;;;67.50;52.50;;;;;8.86;56.60;102986.56;6272491;22;45518;-81
2023/02/10 04:29:31;;;;;;;;;67.50;51.50;;;;;8.84;56.98;102994.47;6271443;22;46710;-80
2023/02/10 04:31:56;;;;;;;;;61.75;50.25;;;;;8.82;56.85;102996.25;6272247;22;45841;-79
2023/02/10 04:34:22;;;;;;;;;66.75;52.00;;;;;8.75;56.54;102994.66;6271944;22;45598;-80
2023/02/10 04:40:22;;;;;;;;;64.50;49.00;;;;;8.73;56.66;103013.91;6266752;22;45523;-80
2023/02/10 04:42:48;;;;;;;;;67.75;52.00;;;;;8.74;56.91;103016.50;6272751;22;45476;-80
2023/02/10 04:45:13;;;;;;;;;68.00;51.75;;;;;8.68;56.74;103007.94;6273235;22;45562;-77
2023/02/10 04:47:39;;;;;;;;;64.75;51.75;;;;;8.72;56.87;103020.88;6273497;22;45420;-80
2023/02/10 04:50:04;;;;;;;;;62.50;48.75;;;;;8.71;56.76;103018.31;6272871;22;46118;-78
2023/02/10 04:52:30;;;;;;;;;66.75;51.50;;;;;8.71;56.71;103027.00;6272866;22;46192;-79
2023/02/10 04:54:55;;;;;;;;;70.25;51.50;;;;;8.64;56.76;103017.59;6271717;22;45445;-78
2023/02/10 04:57:20;;;;;;;;;60.75;48.50;;;;;8.68;56.93;103027.09;6272116;22;45578;-80
2023/02/10 04:59:46;;;;;;;;;67.75;53.00;;;;;8.61;56.78;103019.44;6244202;22;47210;-78
2023/02/10 05:02:11;;;;;;;;;62.75;47.50;;;;;8.65;56.84;103028.91;6271069;22;46109;-78
2023/02/10 05:04:39;;;;;;;;;65.00;50.33;;;;;8.58;56.56;103007.31;6272521;22;45571;-79
2023/02/10 05:10:26;;;;;;;;;58.75;47.25;;;;;8.65;56.67;103023.69;6276209;22;45649;-78
2023/02/10 05:12:51;;;;;;;;;60.75;49.75;;;;;8.60;56.71;103015.94;6274225;22;46326;-79
2023/02/10 05:15:17;;;;;;;;;61.50;50.25;;;;;8.58;56.58;103017.75;6273962;22;45566;-75
2023/02/10 05:17:42;;;;;;;;;64.75;49.00;;;;;8.61;57.07;103016.81;6245893;22;45605;-78
2023/02/10 05:20:08;;;;;;;;;58.75;46.25;;;;;8.54;56.90;103012.63;6272591;22;46807;-77
2023/02/10 05:26:23;;;;;;;;;54.00;43.75;;;;;8.63;56.82;103034.19;6272849;22;45605;-79
2023/02/10 05:28:48;;;;;;;;;54.50;45.25;;;;;8.37;56.82;102986.91;6271790;22;45865;-78
2023/02/10 05:31:13;;;;;;;;;43.25;39.00;;;;;8.52;56.84;103012.69;6269654;22;47490;-76
2023/02/10 05:33:39;;;;;;;;;47.50;41.25;;;;;8.63;56.70;103035.94;6271177;22;46237;-76
2023/02/10 05:36:05;;;;;;;;;48.50;40.50;;;;;8.62;56.34;103042.06;6270219;22;45780;-77
2023/02/10 05:38:30;;;;;;;;;39.25;37.00;;;;;8.45;56.81;103010.25;6272697;22;45689;-79
2023/02/10 05:40:58;;;;;;;;;42.50;38.00;;;;;8.50;56.55;103010.97;6270995;22;46452;-78
2023/02/10 05:43:23;;;;;;;;;46.75;39.50;;;;;8.46;56.83;103007.59;6270575;22;46946;-79
2023/02/10 05:45:48;;;;;;;;;40.50;32.75;;;;;8.58;56.77;103029.97;6271247;22;45598;-81
2023/02/10 05:48:14;;;;;;;;;36.00;32.25;;;;;8.61;56.60;103037.72;6270644;22;45647;-77
2023/02/10 05:50:41;;;;;;;;;43.25;33.00;;;;;8.57;56.72;103025.63;6244792;22;47279;-78
2023/02/10 05:53:07;;;;;;;;;19.50;15.50;;;;;8.63;56.61;103041.16;6273760;22;46314;-75
2023/02/10 05:55:32;;;;;;;;;42.25;37.75;;;;;8.63;56.44;103044.63;6273791;22;45622;-78
2023/02/10 05:58:02;;;;;;;;;37.75;34.50;;;;;8.63;56.81;103057.72;6273833;22;45433;-77
2023/02/10 06:00:28;;;;;;;;;44.50;37.00;;;;;8.67;56.31;103058.47;6246334;22;45623;-78
2023/02/10 06:02:53;;;;;;;;;52.75;41.25;;;;;8.69;56.34;103056.69;6273304;22;46132;-75
2023/02/10 06:05:19;;;;;;;;;57.75;42.25;;;;;8.70;56.49;103053.16;6273370;22;46077;-76
2023/02/10 06:11:06;;;;;;;;;52.00;41.75;;;;;8.36;56.52;102986.06;6271082;22;46045;-77
2023/02/10 06:13:31;;;;;;;;;56.50;44.75;;;;;8.73;56.49;103053.09;6270583;22;45649;-75
2023/02/10 06:15:57;;;;;;;;;59.75;44.50;;;;;8.61;56.26;103037.72;6271653;22;45567;-77
2023/02/10 06:18:22;;;;;;;;;54.75;43.50;;;;;8.74;56.39;103053.09;6271861;22;45647;-77
2023/02/10 06:20:48;;;;;;;;;58.25;43.00;;;;;8.70;56.54;103051.41;6244315;22;45543;-76
2023/02/10 06:26:36;;;;;;;;;53.25;42.00;;;;;8.74;56.58;103054.84;6271459;22;45679;-78
2023/02/10 06:29:04;;;;;;;;;52.50;39.50;;;;;8.74;56.57;103049.59;6243231;22;45790;-77
2023/02/10 06:31:29;;;;;;;;;51.50;43.25;;;;;8.75;56.45;103057.38;6269772;22;45677;-77
2023/02/10 06:33:54;;;;;;;;;46.00;41.25;;;;;8.74;56.56;103060.91;6270440;22;46219;-75
2023/02/10 06:36:20;;;;;;;;;60.25;46.50;;;;;8.76;56.38;103060.88;6271502;22;45484;-76
2023/02/10 06:38:47;;;;;;;;;57.75;47.25;;;;;8.75;56.35;103057.38;6270831;22;45800;-77
2023/02/10 06:41:13;;;;;;;;;46.00;40.75;;;;;8.73;56.41;103053.97;6270474;22;46620;-76
2023/02/10 06:43:38;;;;;;;;;58.50;44.75;;;;;8.74;56.45;103058.31;6271927;22;45788;-75
2023/02/10 06:46:04;;;;;;;;;59.25;46.25;;;;;8.72;56.28;103064.44;6272421;22;45621;-76
2023/02/10 06:48:29;;;;;;;;;57.75;42.50;;;;;8.74;56.50;103067.91;6272523;22;45519;-75
2023/02/10 06:50:55;;;;;;;;;51.25;43.75;;;;;8.74;56.35;103067.91;6271208;22;46214;-77
2023/02/10 06:56:45;;;;;;;;;51.25;41.75;;;;;8.64;56.43;103055.91;6271151;22;45377;-77
2023/02/10 06:59:11;;;;;;;;;59.00;46.25;;;;;8.70;56.21;103061.88;6243588;22;45483;-75
2023/02/10 07:01:37;;;;;;;;;58.50;43.50;;;;;8.66;56.45;103054.13;6272605;22;46695;-76
2023/02/10 07:04:02;;;;;;;;;49.50;43.00;;;;;8.64;56.48;103045.47;6271457;22;47016;-74
2023/02/10 07:06:28;;;;;;;;;55.00;45.75;;;;;8.69;56.29;103064.53;6271730;22;45572;-73
2023/02/10 07:12:14;;;;;;;;;56.25;44.75;;;;;8.71;56.51;103070.56;6272539;22;45787;-72
2023/02/10 07:14:41;;;;;;;;;58.25;45.25;;;;;8.71;56.34;103071.44;6271734;22;46508;-71
2023/02/10 07:17:06;;;;;;;;;56.25;43.50;;;;;8.71;56.42;103078.41;6271894;22;45524;-72
2023/02/10 07:19:31;;;;;;;;;58.50;45.00;;;;;8.72;56.37;103073.16;6272929;22;45536;-77
2023/02/10 07:21:57;;;;;;;;;62.50;46.00;;;;;8.70;56.42;103074.06;6271930;22;46305;-71
2023/02/10 07:24:22;;;;;;;;;57.50;45.25;;;;;8.73;56.40;103085.34;6271486;22;46618;-72
2023/02/10 07:26:47;;;;;;;;;59.25;47.75;;;;;8.70;56.43;103087.13;6270997;22;45526;-74
2023/02/10 07:29:13;;;;;;;;;55.25;44.50;;;;;8.74;56.32;103087.06;6271877;22;45718;-71
2023/02/10 07:31:38;;;;;;;;;51.50;45.50;;;;;8.75;56.50;103093.13;6271948;22;45916;-73
2023/02/10 07:34:04;;;;;;;;;63.00;48.50;;;;;8.75;56.37;103093.13;6272056;22;46116;-72
2023/02/10 07:36:29;;;;;;;;;64.00;48.75;;;;;8.73;56.60;103093.19;6271506;22;45562;-71
2023/02/10 07:42:43;;;;;;;;;62.25;45.50;;;;;8.78;56.37;103106.13;6268864;22;45637;-73
2023/02/10 07:45:09;;;;;;;;;58.50;44.00;;;;;8.78;56.29;103100.91;6272250;22;46041;-72
2023/02/10 07:47:34;;;;;;;;;58.00;45.75;;;;;8.79;56.35;103102.63;6273563;22;45401;-73
2023/02/10 07:49:59;;;;;;;;;59.00;47.00;;;;;8.80;56.31;103106.94;6273838;22;45697;-74
2023/02/10 07:52:25;;;;;;;;;58.25;45.25;;;;;8.80;56.36;103106.94;6273734;22;45695;-72
2023/02/10 07:54:50;;;;;;;;;59.50;47.00;;;;;8.84;56.13;103111.22;6272096;22;45857;-73
2023/02/10 07:57:17;;;;;;;;;50.50;41.25;;;;;8.85;56.23;103112.94;6273327;22;45603;-76
2023/02/10 07:59:43;;;;;;;;;47.75;42.00;;;;;8.81;56.42;103100.81;6245136;22;45528;-74
2023/02/10 08:02:10;;;;;;;;;59.75;44.50;;;;;8.84;56.44;103098.16;6272274;22;46207;-73
2023/02/10 08:04:35;;;;;;;;;46.75;35.00;;;;;8.88;56.35;103112.84;6271795;22;45566;-71
2023/02/10 08:07:00;;;;;;;;;56.75;42.75;;;;;8.85;56.17;103120.78;6272416;22;45406;-73
2023/02/10 08:12:48;;;;;;;;;56.25;43.50;;;;;8.90;56.21;103136.34;6271498;22;45447;-75
2023/02/10 08:15:16;;;;;;;;;55.75;43.75;;;;;8.89;56.00;103125.03;6272541;22;45889;-77
2023/02/10 08:17:43;;;;;;;;;47.75;41.50;;;;;8.94;56.15;103131.00;6272329;22;45536;-75
2023/02/10 08:20:09;;;;;;;;;48.00;40.50;;;;;8.89;55.90;103116.34;6272326;22;45469;-76
2023/02/10 08:22:34;;;;;;;;;41.25;36.75;;;;;8.95;55.91;103132.72;6271093;22;47049;-73
2023/02/10 08:25:00;;;;;;;;;55.00;45.00;;;;;8.98;55.98;103139.63;6271339;22;45826;-71
2023/02/10 08:27:26;;;;;;;;;50.25;42.75;;;;;8.99;55.84;103141.34;6271489;22;45729;-73
2023/02/10 08:29:51;;;;;;;;;54.00;42.25;;;;;8.98;55.78;103132.66;6271781;22;45574;-77
2023/02/10 08:32:25;;;;;;;;;47.25;41.00;;;;;9.02;55.74;103134.28;6271410;22;46359;-75
2023/02/10 08:34:51;;;;;;;;;46.25;40.00;;;;;8.93;55.66;103120.59;6272158;22;46070;-75
2023/02/10 08:37:17;;;;;;;;;41.75;37.75;;;;;9.02;55.81;103144.75;6272324;22;45583;-72
2023/02/10 08:43:04;;;;;;;;;60.00;47.75;;;;;9.09;55.67;103151.56;6266657;22;45944;-72
2023/02/10 08:45:30;;;;;;;;;57.50;45.50;;;;;9.09;55.66;103151.56;6271316;22;47260;-72
2023/02/10 08:47:56;;;;;;;;;49.50;40.50;;;;;9.04;55.75;103132.50;6271928;22;45606;-72
2023/02/10 08:50:21;;;;;;;;;44.75;40.25;;;;;9.17;55.37;103154.00;6271644;22;45696;-76
2023/02/10 08:52:47;;;;;;;;;49.75;41.25;;;;;9.18;55.55;103148.72;6270790;22;46094;-70
2023/02/10 08:58:34;;;;;;;;;44.75;39.50;;;;;9.16;55.12;103131.34;6271474;22;45545;-73
2023/02/10 09:00:59;;;;;;;;;42.75;37.25;;;;;9.21;55.39;103124.25;6272388;22;45428;-77
2023/02/10 09:03:26;;;;;;;;;42.00;38.00;;;;;9.24;55.03;103143.34;6244887;22;45512;-72
2023/02/10 09:05:57;;;;;;;;;49.00;39.00;;;;;9.21;54.91;103132.09;6273717;22;46072;-76
2023/02/10 09:08:23;;;;;;;;;44.75;39.75;;;;;9.25;55.16;103139.81;6271879;22;45447;-74
2023/02/10 09:10:48;;;;;;;;;42.75;38.50;;;;;9.32;55.25;103147.53;6272294;22;45411;-70
2023/02/10 09:13:14;;;;;;;;;42.75;40.75;;;;;9.33;55.11;103144.88;6272173;22;47236;-74
2023/02/10 09:15:42;;;;;;;;;44.00;40.25;;;;;9.36;54.75;103143.91;6271248;22;47109;-74
2023/02/10 09:18:08;;;;;;;;;49.50;40.50;;;;;9.34;54.69;103138.72;6270939;22;45530;-72
2023/02/10 09:20:35;;;;;;;;;44.00;39.00;;;;;9.37;54.81;103143.91;6272179;22;45675;-73
2023/02/10 09:23:01;;;;;;;;;53.25;40.75;;;;;9.35;54.78;103131.72;6270577;22;46738;-72
2023/02/10 09:28:48;;;;;;;;;42.75;36.50;;;;;9.44;54.68;103131.53;6271266;22;45570;-70
2023/02/10 09:31:17;;;;;;;;;40.75;34.25;;;;;9.48;54.38;103138.38;6271109;22;45577;-73
2023/02/10 09:33:44;;;;;;;;;36.75;33.75;;;;;9.50;54.19;103136.59;6272804;22;46250;-71
2023/02/10 09:36:18;;;;;;;;;45.75;39.50;;;;;9.52;54.41;103138.25;6273464;22;46012;-77
2023/02/10 09:38:44;;;;;;;;;37.75;32.50;;;;;9.58;53.95;103134.63;6273370;22;45770;-77
2023/02/10 09:41:09;;;;;;;;;31.00;29.25;;;;;9.60;54.34;103136.31;6272096;22;45414;-75
2023/02/10 09:43:59;;;;;;;;;29.33;27.00;;;;;9.63;53.82;103145.84;6271256;22;46359;-77
2023/02/10 09:46:34;;;;;;;;;31.00;26.50;;;;;9.61;53.71;103148.47;6271269;22;46140;-78
2023/02/10 09:49:19;;;;;;;;;28.50;26.00;;;;;9.62;53.94;103157.19;6271164;22;45521;-74
2023/02/10 09:51:55;;;;;;;;;26.00;23.75;;;;;9.64;53.58;103153.66;6271922;22;45550;-75
2023/02/10 09:54:22;;;;;;;;;25.00;21.50;;;;;9.66;53.52;103148.38;6270949;22;47303;-74
2023/02/10 09:56:48;;;;;;;;;25.50;24.25;;;;;9.67;53.52;103150.94;6271434;22;45657;-72
2023/02/10 09:59:21;;;;;;;;;30.00;25.50;;;;;9.70;53.48;103155.25;6272537;22;45809;-73
2023/02/10 10:01:58;;;;;;;;;27.75;25.75;;;;;9.75;53.26;103169.06;6272112;22;45626;-71
2023/02/10 10:04:27;;;;;;;;;35.50;30.50;;;;;9.77;53.26;103166.44;6272914;22;45447;-75
2023/02/10 10:07:15;;;;;;;;;29.75;26.00;;;;;9.81;53.45;103163.69;6271657;22;46432;-78
2023/02/10 10:09:45;;;;;;;;;25.00;22.25;;;;;9.86;52.91;103164.41;6271370;22;45615;-73
2023/02/10 10:12:16;;;;;;;;;33.25;29.00;;;;;9.86;53.35;103156.56;6270599;22;45592;-77
2023/02/10 10:14:43;;;;;;;;;30.00;26.75;;;;;9.92;53.56;103156.38;6270671;22;47421;-72
2023/02/10 10:17:25;;;;;;;;;20.25;20.25;;;;;9.95;53.20;103156.28;6270698;22;46328;-69
2023/02/10 10:20:11;;;;;;;;;32.25;28.00;;;;;9.99;53.04;103152.69;6218638;22;45453;-71
2023/02/10 10:23:00;;;;;;;;;35.50;27.50;;;;;10.08;53.16;103162.91;6271699;22;45657;-71
2023/02/10 10:26:00;;;;;;;;;31.75;26.75;;;;;10.14;52.89;103168.88;6146330;23;46577;-75
2023/02/10 10:28:33;;;;;;;;;31.50;27.25;;;;;10.14;52.64;103166.28;6146241;23;47468;-72
2023/02/10 10:31:16;;;;;;;;;38.75;32.75;;;;;10.10;52.98;103155.84;6146563;23;45576;-73
2023/02/10 10:33:59;;;;;;;;;38.50;30.75;;;;;10.22;53.33;103169.56;6146380;23;45622;-74
2023/02/10 10:36:41;;;;;;;;;34.50;29.75;;;;;10.25;53.05;103174.72;6146136;23;46853;-70
2023/02/10 10:42:58;;;;;;;;;31.75;28.75;;;;;10.40;52.74;103174.28;6153969;23;45845;-73
2023/02/10 10:45:38;;;;;;;;;28.50;27.25;;;;;10.42;52.87;103168.06;6176535;23;45787;-69
2023/02/10 10:48:15;;;;;;;;;33.50;28.75;;;;;10.46;52.58;103179.34;6152127;23;45619;-73
2023/02/10 10:50:40;;;;;;;;;31.25;28.00;;;;;10.48;52.79;103174.88;6176658;23;46145;-71
2023/02/10 10:53:15;;;;;;;;;23.75;22.50;;;;;10.52;52.61;103181.78;6176599;23;46352;-72
2023/02/10 10:59:21;;;;;;;;;30.25;26.25;;;;;10.57;52.71;103179.88;6177409;23;45966;-76
2023/02/10 11:01:49;;;;;;;;;30.00;28.75;;;;;10.56;52.49;103170.28;6196923;22;45736;-75
2023/02/10 11:04:18;;;;;;;;;34.50;29.00;;;;;10.58;52.71;103167.63;6271685;22;45527;-73
2023/02/10 11:06:49;;;;;;;;;27.50;24.75;;;;;10.55;52.64;103152.84;6272893;22;45661;-74
2023/02/10 11:15:46;;;;;;;;;29.00;22.75;;;;;10.83;52.49;103148.47;6271006;22;45787;-74
2023/02/10 11:18:21;;;;;;;;;28.00;25.50;;;;;10.84;52.67;103142.34;6271011;22;45599;-77
2023/02/10 11:21:02;;;;;;;;;29.25;27.00;;;;;10.91;52.87;103140.34;6272250;22;46245;-76
2023/02/10 11:23:28;;;;;;;;;30.25;26.25;;;;;10.87;52.91;103131.72;6271005;22;46213;-75
2023/02/10 11:26:06;;;;;;;;;29.75;25.00;;;;;10.98;53.12;103130.53;6270177;22;45394;-75
2023/02/10 11:28:35;;;;;;;;;38.00;30.75;;;;;11.03;53.22;103139.09;6270569;22;45834;-75
2023/02/10 11:31:04;;;;;;;;;30.75;28.25;;;;;11.06;53.36;103133.78;6271309;22;46519;-73
2023/02/10 11:33:33;;;;;;;;;30.50;24.75;;;;;11.07;53.44;103140.72;6270859;22;46290;-73
2023/02/10 11:36:08;;;;;;;;;31.75;26.50;;;;;11.06;53.65;103133.78;6272177;22;45536;-73
2023/02/10 11:38:35;;;;;;;;;29.75;25.50;;;;;11.07;53.78;103136.31;6272032;22;45567;-75
2023/02/10 11:41:09;;;;;;;;;27.75;24.75;;;;;11.06;54.15;103144.28;6271515;22;46442;-75
2023/02/10 11:43:46;;;;;;;;;27.25;24.75;;;;;11.01;54.26;103135.69;6270843;22;46242;-77
2023/02/10 11:46:25;;;;;;;;;29.25;25.25;;;;;11.00;54.69;103137.47;6271177;22;45480;-78
2023/02/10 11:49:17;;;;;;;;;41.00;29.50;;;;;11.02;54.72;103134.75;6272466;22;45769;-77
2023/02/10 11:51:54;;;;;;;;;33.25;30.50;;;;;11.04;54.67;103135.59;6272098;22;45515;-76
2023/02/10 11:54:20;;;;;;;;;30.50;25.25;;;;;11.04;54.46;103135.59;6244688;22;47488;-73
2023/02/10 12:00:12;;;;;;;;;38.50;33.50;;;;;11.07;54.81;103133.69;6272208;22;45574;-73
2023/02/10 12:02:56;;;;;;;;;37.75;33.25;;;;;11.09;54.92;103141.53;6270417;22;46379;-76
2023/02/10 12:05:39;;;;;;;;;34.75;30.75;;;;;11.11;54.95;103127.47;6272289;22;46059;-75
2023/02/10 12:08:37;;;;;;;;;38.00;32.25;;;;;11.13;54.93;103130.88;6272041;22;45858;-73
2023/02/10 12:14:42;;;;;;;;;33.25;32.25;;;;;11.21;54.95;103135.88;6271942;22;45996;-74
2023/02/10 12:17:25;;;;;;;;;32.25;29.25;;;;;11.23;55.10;103127.03;6272039;22;45706;-76
2023/02/10 12:20:12;;;;;;;;;30.50;28.75;;;;;11.29;55.06;103134.72;6271309;22;45371;-75
2023/02/10 12:22:57;;;;;;;;;32.50;28.75;;;;;11.29;55.28;103132.09;6271225;22;45396;-74
2023/02/10 12:25:36;;;;;;;;;32.50;30.75;;;;;11.24;55.35;103134.00;6271184;22;46504;-75
2023/02/10 12:28:26;;;;;;;;;37.00;32.00;;;;;11.20;55.58;103134.16;6271069;22;46215;-76
2023/02/10 12:31:00;;;;;;;;;34.50;31.00;;;;;11.15;55.75;103133.47;6272131;22;45785;-76
2023/02/10 12:33:55;;;;;;;;;34.50;29.00;;;;;11.14;55.89;103123.88;6272279;22;45458;-78
2023/02/10 12:36:26;;;;;;;;;33.50;31.75;;;;;11.18;56.21;103123.72;6271466;22;47404;-74
2023/02/10 12:39:31;;;;;;;;;35.75;33.50;;;;;11.19;56.03;103124.56;6272182;22;46389;-76
2023/02/10 12:42:35;;;;;;;;;33.00;31.50;;;;;11.20;56.24;103115.81;6268458;22;45479;-78
2023/02/10 12:45:28;;;;;;;;;40.00;31.75;;;;;11.24;56.34;103123.50;6272472;22;45755;-71
2023/02/10 12:48:25;;;;;;;;;36.50;33.75;;;;;11.29;56.30;103118.09;6271778;22;46458;-78
2023/02/10 12:51:12;;;;;;;;;31.00;29.00;;;;;11.35;56.37;103118.75;6272277;22;46128;-75
2023/02/10 12:53:45;;;;;;;;;44.75;34.00;;;;;11.42;56.06;103108.06;6271822;22;45492;-73
2023/02/10 12:59:43;;;;;;;;;35.25;30.50;;;;;11.54;55.82;103105.88;6271623;22;45505;-72
2023/02/10 13:02:15;;;;;;;;;38.50;31.25;;;;;11.61;56.00;103103.88;6271583;22;46037;-74
2023/02/10 13:04:46;;;;;;;;;30.00;27.25;;;;;11.63;56.11;103097.66;6272315;22;45850;-73
2023/02/10 13:07:25;;;;;;;;;30.50;27.75;;;;;11.65;56.27;103095.84;6272210;22;45492;-72